Time;durP1;ratioP1;P1;durP2;ratioP2;P2;SDS_P1;SDS_P2;PMS_P1;PMS_P2;Temp;Humidity;BMP_temperature;BMP_pressure;BME280_temperature;BME280_humidity;BME280_pressure;Samples;Min_cycle;Max_cycle;Signal;HPM_P1;HPM_P2
2022/06/10 00:00:27;;;;;;;15.98;12.43;;;;;;;19.19;100.00;99733.16;4289241;32;1077722;-63
2022/06/10 00:36:59;;;;;;;15.07;13.40;;;;;;;-145.40;100.00;59118.41;3995281;32;1046365;-63
2022/06/10 00:39:26;;;;;;;15.80;11.23;;;;;;;19.53;100.00;99732.91;4386128;32;927480;-63
2022/06/10 00:41:53;;;;;;;14.68;11.80;;;;;;;24.89;100.00;99766.19;4470409;32;20089;-63
2022/06/10 04:23:13;;;;;;;20.40;12.50;;;;;;;25.01;100.00;99757.09;4196361;32;1046085;-63
2022/06/10 04:25:41;;;;;;;21.87;14.98;;;;;;;25.01;100.00;99757.09;4479205;31;235791;-64
2022/06/10 04:28:08;;;;;;;16.37;14.52;;;;;;;21.60;100.00;99955.75;4486469;31;20080;-63
2022/06/10 04:30:43;;;;;;;15.98;14.30;;;;;;;21.44;100.00;99955.00;4458757;31;20515;-63
2022/06/10 04:33:11;;;;;;;19.33;14.63;;;;;;;21.81;100.00;99958.00;4455044;32;20131;-64
2022/06/10 04:35:40;;;;;;;15.50;13.98;;;;;;;21.68;100.00;99964.16;4455024;32;20088;-64
2022/06/10 04:38:08;;;;;;;14.48;13.00;;;;;;;22.01;100.00;99970.09;4455599;32;20096;-63
2022/06/10 04:40:37;;;;;;;18.42;13.82;;;;;;;22.05;100.00;99971.59;4455680;32;20089;-63
2022/06/10 04:43:07;;;;;;;13.52;12.13;;;;;;;22.09;100.00;99965.09;4455802;32;20158;-64
2022/06/10 04:45:48;;;;;;;13.65;11.98;;;;;;;21.98;100.00;99971.19;4455878;32;20123;-64
2022/06/10 04:48:16;;;;;;;14.82;12.50;;;;;;;22.15;100.00;99970.94;4455899;32;20421;-63
2022/06/10 04:50:47;;;;;;;13.23;11.73;;;;;;;22.37;100.00;99967.69;4455806;32;20094;-63
2022/06/10 04:53:15;;;;;;;11.85;10.68;;;;;;;22.07;100.00;99967.00;4454238;32;20564;-63
2022/06/10 04:55:42;;;;;;;12.52;9.65;;;;;;;22.18;100.00;99978.78;4455659;32;20172;-63
2022/06/10 04:58:10;;;;;;;12.07;9.88;;;;;;;22.02;100.00;99982.56;4455789;32;20153;-63
2022/06/10 05:00:42;;;;;;;10.57;9.68;;;;;;;22.19;100.00;99982.31;4455791;32;20193;-63
2022/06/10 05:03:10;;;;;;;12.27;9.82;;;;;;;21.94;100.00;99991.97;4455608;32;20176;-64
2022/06/10 05:05:38;;;;;;;11.18;9.52;;;;;;;22.02;100.00;99991.47;4455466;32;20172;-64
2022/06/10 05:08:06;;;;;;;15.38;10.77;;;;;;;22.06;100.00;99993.00;4458495;32;20096;-64
2022/06/10 05:10:34;;;;;;;12.48;11.10;;;;;;;22.19;100.00;100001.09;4459344;32;20127;-64
2022/06/10 05:13:02;;;;;;;11.38;9.65;;;;;;;22.11;100.00;100000.72;4465974;32;20109;-64
2022/06/10 05:15:29;;;;;;;11.00;9.90;;;;;;;22.48;100.00;100001.00;4455124;32;20096;-63
2022/06/10 05:17:58;;;;;;;12.95;8.85;;;;;;;22.42;100.00;99999.59;4468539;32;20139;-64
2022/06/10 05:20:32;;;;;;;10.45;9.40;;;;;;;22.54;100.00;100008.62;4464559;32;20128;-64
2022/06/10 05:23:01;;;;;;;10.85;9.27;;;;;;;22.69;100.00;100010.31;4458980;32;20744;-63
2022/06/10 05:25:29;;;;;;;11.60;8.57;;;;;;;22.89;100.00;100016.97;4466071;32;20092;-64
2022/06/10 05:27:56;;;;;;;10.68;9.43;;;;;;;23.23;100.00;100020.91;4461332;32;20097;-64
2022/06/10 05:30:30;;;;;;;13.98;9.27;;;;;;;23.08;100.00;100016.59;4468411;32;20113;-64
2022/06/10 05:32:59;;;;;;;11.63;9.15;;;;;;;23.06;100.00;100026.59;4460128;32;20147;-64
2022/06/10 05:35:28;;;;;;;15.50;9.73;;;;;;;22.99;100.00;100026.16;4455043;32;20149;-64
2022/06/10 05:37:55;;;;;;;15.57;9.00;;;;;;;23.63;100.00;100035.06;4461847;32;20408;-64
2022/06/10 05:40:25;;;;;;;9.25;8.10;;;;;;;23.52;100.00;100034.09;4462779;32;20161;-64
2022/06/10 05:42:53;;;;;;;12.70;9.23;;;;;;;23.41;100.00;100037.56;4461721;32;20115;-64
2022/06/10 05:45:21;;;;;;;8.75;7.85;;;;;;;23.42;100.00;100044.66;4454719;32;20130;-64
2022/06/10 05:47:53;;;;;;;13.32;8.45;;;;;;;23.46;100.00;100047.97;4452788;32;20080;-64
2022/06/10 05:50:21;;;;;;;11.95;7.82;;;;;;;23.67;100.00;100048.28;4456199;31;20115;-64
2022/06/10 05:52:48;;;;;;;9.70;7.05;;;;;;;24.12;100.00;100052.19;4478356;31;20162;-64
2022/06/10 05:55:16;;;;;;;9.50;6.90;;;;;;;23.69;100.00;100052.62;4453680;32;20166;-64
2022/06/10 05:57:45;;;;;;;9.55;7.00;;;;;;;23.73;100.00;100055.97;4453599;32;20146;-64
2022/06/10 06:00:17;;;;;;;7.32;6.20;;;;;;;24.06;100.00;100052.62;4453436;32;20131;-64
2022/06/10 06:02:45;;;;;;;8.32;6.93;;;;;;;23.96;100.00;100055.16;4454713;32;20142;-64
2022/06/10 06:05:12;;;;;;;7.97;7.18;;;;;;;23.53;100.00;100057.34;4453848;32;20133;-64
2022/06/10 06:07:40;;;;;;;11.43;6.80;;;;;;;23.63;100.00;100055.72;4448154;32;20084;-64
2022/06/10 06:10:14;;;;;;;8.88;7.25;;;;;;;23.81;100.00;100064.31;4467781;32;20122;-64
2022/06/10 06:12:42;;;;;;;10.02;7.60;;;;;;;23.57;100.00;100061.56;4462208;32;20829;-64
2022/06/10 06:15:11;;;;;;;10.52;7.60;;;;;;;23.96;100.00;100067.72;4458236;32;20161;-63
2022/06/10 06:17:38;;;;;;;8.98;7.78;;;;;;;23.95;100.00;100064.19;4455928;32;20092;-64
2022/06/10 06:20:06;;;;;;;8.43;7.10;;;;;;;24.23;100.00;100068.41;4463974;32;20093;-64
2022/06/10 06:22:34;;;;;;;10.88;7.37;;;;;;;24.11;100.00;100058.56;4464296;32;20105;-64
2022/06/10 06:25:02;;;;;;;10.23;8.45;;;;;;;24.08;100.00;100061.47;4461586;32;20208;-64
2022/06/10 06:27:29;;;;;;;10.82;9.55;;;;;;;24.05;100.00;100067.94;4461105;31;20152;-64
2022/06/10 06:29:59;;;;;;;9.68;8.35;;;;;;;24.34;100.00;100065.78;4458674;32;20092;-64
2022/06/10 06:32:26;;;;;;;15.90;8.07;;;;;;;23.99;100.00;100062.12;4470567;32;20089;-63
2022/06/10 06:34:53;;;;;;;8.48;7.07;;;;;;;24.24;100.00;100072.84;4454844;32;20104;-64
2022/06/10 06:37:20;;;;;;;10.38;6.90;;;;;;;24.21;100.00;100075.75;4454620;31;20761;-64
2022/06/10 06:39:48;;;;;;;7.47;6.78;;;;;;;24.26;100.00;100070.03;4454211;32;20763;-64
2022/06/10 06:42:15;;;;;;;7.07;6.37;;;;;;;24.60;100.00;100081.03;4454713;32;20109;-64
2022/06/10 06:44:44;;;;;;;11.73;6.32;;;;;;;24.43;100.00;100093.91;4454054;32;20526;-64
2022/06/10 06:47:32;;;;;;;8.73;6.55;;;;;;;24.13;100.00;100083.50;4454329;32;20081;-64
2022/06/10 06:50:00;;;;;;;6.72;6.12;;;;;;;24.60;100.00;100089.97;4454753;32;20154;-64
2022/06/10 06:52:27;;;;;;;12.30;6.03;;;;;;;24.70;100.00;100082.03;4454653;32;20101;-64
2022/06/10 06:54:54;;;;;;;8.43;6.00;;;;;;;24.65;100.00;100079.69;4454561;32;20172;-64
2022/06/10 06:57:22;;;;;;;9.77;5.53;;;;;;;24.77;100.00;100080.59;4456493;32;20091;-64
2022/06/10 06:59:50;;;;;;;6.18;4.80;;;;;;;25.07;100.00;100088.19;4454266;32;20089;-64
2022/06/10 07:02:17;;;;;;;11.80;5.30;;;;;;;24.95;100.00;100090.00;4464360;32;20762;-64
2022/06/10 07:04:45;;;;;;;8.38;5.22;;;;;;;25.31;100.00;100096.25;4469085;32;20572;-64
2022/06/10 07:07:12;;;;;;;5.68;5.00;;;;;;;25.95;100.00;100101.09;4465730;32;20096;-64
2022/06/10 07:09:39;;;;;;;5.32;4.78;;;;;;;26.03;100.00;100098.63;4467106;32;20145;-64
2022/06/10 07:12:07;;;;;;;9.00;4.70;;;;;;;25.84;100.00;100103.81;4455368;32;20133;-64
2022/06/10 07:14:34;;;;;;;4.97;4.47;;;;;;;26.11;100.00;100101.56;4469721;32;20153;-64
2022/06/10 07:17:01;;;;;;;7.80;5.22;;;;;;;25.90;100.00;100098.78;4470252;32;20088;-64
2022/06/10 07:19:30;;;;;;;7.97;4.65;;;;;;;26.56;100.00;100106.91;4470181;32;20156;-64
2022/06/10 07:21:57;;;;;;;8.10;5.78;;;;;;;25.85;100.00;100106.38;4469779;32;20127;-64
2022/06/10 07:24:25;;;;;;;7.30;5.43;;;;;;;26.11;100.00;100098.84;4470134;32;20159;-63
2022/06/10 07:26:52;;;;;;;8.00;5.20;;;;;;;25.97;100.00;100099.13;4470339;32;20148;-64
2022/06/10 07:29:19;;;;;;;11.82;4.80;;;;;;;26.20;100.00;100098.13;4468197;32;20096;-64
2022/06/10 07:31:46;;;;;;;6.10;5.07;;;;;;;26.11;100.00;100111.50;4455769;32;20104;-64
2022/06/10 07:34:16;;;;;;;6.85;5.28;;;;;;;26.28;100.00;100102.91;4455954;32;20727;-64
2022/06/10 07:36:43;;;;;;;4.87;4.47;;;;;;;25.98;100.00;100104.41;4455709;32;20484;-64
2022/06/10 07:39:10;;;;;;;7.57;5.18;;;;;;;26.19;100.00;100095.56;4456246;32;20093;-64
2022/06/10 07:44:24;;;;;;;8.50;5.30;;;;;;;25.38;100.00;100104.72;4460287;32;20150;-64
2022/06/10 07:46:55;;;;;;;6.45;4.85;;;;;;;26.25;100.00;100105.00;4461749;32;20710;-64
2022/06/10 07:49:29;;;;;;;7.80;5.55;;;;;;;26.25;100.00;100096.88;4462583;32;20085;-64
2022/06/10 07:51:57;;;;;;;8.63;5.32;;;;;;;26.10;100.00;100110.66;4464957;32;20160;-64
2022/06/10 07:54:24;;;;;;;5.50;5.00;;;;;;;25.58;100.00;100105.84;4455572;32;20161;-64
2022/06/10 07:56:52;;;;;;;5.43;4.93;;;;;;;25.80;100.00;100113.12;4454602;32;20107;-64
2022/06/10 07:59:20;;;;;;;5.45;4.95;;;;;;;25.66;100.00;100111.50;4460530;31;20096;-64
2022/06/10 08:01:47;;;;;;;6.25;4.80;;;;;;;26.42;100.00;100121.53;4455675;32;20127;-64
2022/06/10 08:04:15;;;;;;;9.65;4.70;;;;;;;26.67;100.00;100116.81;4455005;32;20119;-64
2022/06/10 08:06:46;;;;;;;7.45;5.20;;;;;;;27.03;100.00;100121.00;4455268;32;20089;-63
2022/06/10 08:09:14;;;;;;;5.62;5.12;;;;;;;26.58;100.00;100123.03;4455378;32;20092;-65
2022/06/10 08:11:42;;;;;;;7.45;4.90;;;;;;;25.80;100.00;100122.09;4460093;32;20092;-64
2022/06/10 08:14:09;;;;;;;7.62;5.90;;;;;;;25.56;100.00;100124.84;4463973;32;20101;-64
2022/06/10 08:16:36;;;;;;;6.62;5.20;;;;;;;25.23;100.00;100131.91;4470978;32;20080;-64
2022/06/10 08:19:04;;;;;;;8.77;5.65;;;;;;;24.98;100.00;100126.59;4459098;32;20751;-65
2022/06/10 08:24:20;;;;;;;11.85;5.43;;;;;;;26.10;100.00;100129.56;4456167;32;20117;-64
2022/06/10 08:26:48;;;;;;;6.53;5.53;;;;;;;25.92;100.00;100136.44;4454422;32;20088;-64
2022/06/10 08:29:18;;;;;;;8.25;5.60;;;;;;;26.00;100.00;100139.38;4455305;32;20751;-64
2022/06/10 08:31:45;;;;;;;7.47;5.43;;;;;;;26.06;100.00;100140.75;4461498;32;20588;-65
2022/06/10 08:34:13;;;;;;;16.00;5.57;;;;;;;25.77;100.00;100149.28;4453404;32;20151;-64
2022/06/10 08:36:42;;;;;;;6.40;5.35;;;;;;;26.05;100.00;100145.28;4454935;32;20089;-64
2022/06/10 08:39:10;;;;;;;8.60;5.85;;;;;;;26.43;100.00;100135.87;4455027;32;20096;-64
2022/06/10 08:42:02;;;;;;;7.15;5.93;;;;;;;26.47;100.00;100145.53;4454057;32;20157;-64
2022/06/10 08:44:52;;;;;;;10.63;5.25;;;;;;;26.37;100.00;100147.22;4455235;32;20199;-64
2022/06/10 08:47:28;;;;;;;8.55;5.75;;;;;;;26.93;100.00;100142.56;4452666;32;20503;-64
2022/06/10 08:50:20;;;;;;;16.70;5.25;;;;;;;26.04;100.00;100151.63;4452973;32;20171;-64
2022/06/10 08:53:05;;;;;;;9.77;5.35;;;;;;;27.28;100.00;100152.25;4454311;32;20092;-64
2022/06/10 08:56:12;;;;;;;6.45;5.20;;;;;;;27.56;100.00;100155.28;4453536;32;20185;-66
2022/06/10 08:58:49;;;;;;;6.60;5.35;;;;;;;27.04;100.00;100149.75;4457384;32;20080;-67
2022/06/10 09:01:22;;;;;;;7.22;4.90;;;;;;;27.15;100.00;100154.28;4458548;32;20154;-67
2022/06/10 09:03:49;;;;;;;6.85;5.22;;;;;;;27.19;100.00;100157.59;4470791;32;20096;-67
2022/06/10 09:06:39;;;;;;;6.53;5.37;;;;;;;27.28;100.00;100163.09;4462614;32;20132;-67
2022/06/10 09:09:10;;;;;;;16.60;5.55;;;;;;;27.53;100.00;100159.13;4461560;32;20149;-67
2022/06/10 09:11:48;;;;;;;13.73;5.25;;;;;;;27.46;100.00;100162.50;4456029;32;20100;-67
2022/06/10 09:14:27;;;;;;;5.97;5.43;;;;;;;27.71;100.00;100163.94;4461182;32;20084;-67
2022/06/10 09:17:29;;;;;;;5.97;5.45;;;;;;;28.06;100.00;100172.56;4464172;32;20108;-67
2022/06/10 09:20:11;;;;;;;7.80;5.30;;;;;;;28.15;100.00;100165.44;4454443;32;20089;-67
2022/06/10 09:22:47;;;;;;;7.78;5.60;;;;;;;28.34;100.00;100172.81;4458067;32;20504;-67
2022/06/10 09:25:34;;;;;;;16.30;6.18;;;;;;;28.36;100.00;100162.69;4469674;32;20092;-67
2022/06/10 09:28:02;;;;;;;10.75;5.70;;;;;;;28.38;95.98;100165.28;4462248;32;20109;-67
2022/06/10 09:30:50;;;;;;;13.38;5.87;;;;;;;27.86;95.78;100160.75;4466634;32;20088;-67
2022/06/10 09:34:05;;;;;;;6.90;5.80;;;;;;;28.56;100.00;100167.19;4470577;32;20155;-67
2022/06/10 09:37:11;;;;;;;6.32;5.60;;;;;;;27.98;96.60;100164.22;4442166;32;20117;-67
2022/06/10 09:42:48;;;;;;;7.82;5.20;;;;;;;28.43;97.93;100163.03;4471131;32;20122;-67
2022/06/10 09:45:26;;;;;;;;;;;;;;;29.37;100.00;100161.56;4461743;32;20072;-67
2022/06/10 09:48:08;;;;;;;9.35;5.68;;;;;;;29.21;91.55;100155.84;4455440;32;19996;-67
2022/06/10 09:50:51;;;;;;;5.62;5.12;;;;;;;29.34;97.92;100161.00;4465425;32;20147;-67
2022/06/10 09:53:57;;;;;;;9.60;6.05;;;;;;;28.78;99.38;100159.81;4457322;32;20723;-67
2022/06/10 09:57:00;;;;;;;7.35;5.12;;;;;;;28.85;98.33;100158.25;4447299;32;20747;-66
2022/06/10 09:59:38;;;;;;;7.55;5.05;;;;;;;29.14;98.19;100162.84;4434879;32;20801;-67
2022/06/10 10:02:21;;;;;;;5.07;4.47;;;;;;;29.69;100.00;100161.25;4471066;32;20401;-67
2022/06/10 10:05:06;;;;;;;8.40;4.97;;;;;;;29.36;93.23;100156.25;4465814;32;20739;-67
2022/06/10 10:07:51;;;;;;;12.07;5.18;;;;;;;29.29;90.60;100154.16;4468603;32;20700;-66
2022/06/10 10:10:31;;;;;;;7.97;5.07;;;;;;;29.02;90.22;100152.16;4470780;32;20142;-67
2022/06/10 10:13:11;;;;;;;8.65;5.12;;;;;;;29.61;90.47;100160.25;4460894;32;20123;-66
2022/06/10 10:15:49;;;;;;;6.05;4.57;;;;;;;29.73;97.57;100169.97;4455027;32;20365;-66
2022/06/10 10:18:35;;;;;;;7.12;4.80;;;;;;;29.81;93.69;100170.06;4454277;32;20149;-67
2022/06/10 10:21:13;;;;;;;8.95;4.80;;;;;;;29.36;92.85;100157.12;4454577;32;20093;-67
2022/06/10 10:23:46;;;;;;;7.35;4.32;;;;;;;29.57;94.12;100169.66;4454697;32;20108;-67
2022/06/10 10:26:28;;;;;;;6.22;4.68;;;;;;;29.96;100.00;100174.00;4439809;32;20154;-66
2022/06/10 10:28:58;;;;;;;5.12;4.62;;;;;;;30.07;100.00;100163.97;4462255;32;20719;-67
2022/06/10 10:31:29;;;;;;;5.55;5.00;;;;;;;29.64;94.68;100163.53;4462344;32;20160;-67
2022/06/10 10:33:58;;;;;;;5.40;4.90;;;;;;;29.56;100.00;100160.66;4466078;32;20800;-67
2022/06/10 10:36:30;;;;;;;8.13;5.25;;;;;;;29.55;94.52;100158.97;4463725;32;20084;-67
2022/06/10 10:39:12;;;;;;;14.18;4.37;;;;;;;29.30;100.00;100166.72;4461181;32;20100;-67
2022/06/10 10:41:47;;;;;;;5.93;4.50;;;;;;;29.37;92.83;100166.16;4457852;32;20156;-67
2022/06/10 10:44:20;;;;;;;9.27;5.07;;;;;;;29.24;96.75;100161.84;4453113;32;20169;-67
2022/06/10 10:47:09;;;;;;;7.18;4.75;;;;;;;29.13;92.00;100166.56;4467891;32;20427;-67
2022/06/10 10:49:42;;;;;;;11.02;5.15;;;;;;;29.58;94.18;100164.09;4465881;32;20095;-67
2022/06/10 10:52:27;;;;;;;10.80;5.20;;;;;;;29.81;99.30;100158.34;4460767;32;20794;-66
2022/06/10 10:54:59;;;;;;;8.98;4.65;;;;;;;29.40;89.06;100160.41;4456502;32;20097;-67
2022/06/10 10:57:32;;;;;;;5.05;4.57;;;;;;;29.21;87.41;100173.00;4448396;32;20157;-67
2022/06/10 11:00:22;;;;;;;5.60;4.70;;;;;;;29.62;90.25;100175.56;4461960;32;20091;-67
2022/06/10 11:02:53;;;;;;;5.05;4.43;;;;;;;29.22;90.35;100163.00;4460674;32;20104;-66
2022/06/10 11:05:26;;;;;;;4.62;4.00;;;;;;;29.39;88.55;100156.84;4462520;32;20173;-67
2022/06/10 11:08:17;;;;;;;6.85;4.07;;;;;;;29.72;91.53;100160.97;4454811;32;20134;-67
2022/06/10 11:11:09;;;;;;;8.48;4.53;;;;;;;30.24;87.24;100155.91;4454598;32;20088;-67
2022/06/10 11:13:40;;;;;;;13.20;4.68;;;;;;;30.32;86.50;100152.47;4463655;32;20737;-67
2022/06/10 11:16:26;;;;;;;6.35;4.37;;;;;;;30.51;89.86;100156.94;4462247;32;20139;-67
2022/06/10 11:19:02;;;;;;;4.90;4.37;;;;;;;30.64;84.90;100162.87;4462922;32;20692;-67
2022/06/10 11:21:29;;;;;;;4.35;4.05;;;;;;;29.60;87.48;100155.84;4454624;32;20462;-67
2022/06/10 11:23:58;;;;;;;4.85;4.15;;;;;;;29.43;85.97;100154.69;4463439;32;20172;-67
2022/06/10 11:26:26;;;;;;;5.53;4.10;;;;;;;29.11;86.90;100152.28;4467288;32;20126;-67
2022/06/10 11:29:03;;;;;;;8.68;4.20;;;;;;;30.15;97.31;100151.38;4462071;32;20468;-67
2022/06/10 11:31:40;;;;;;;6.50;4.05;;;;;;;29.38;82.96;100143.41;4460808;32;20088;-67
2022/06/10 11:34:21;;;;;;;5.90;3.83;;;;;;;30.69;80.81;100138.78;4460057;32;20170;-67
2022/06/10 11:36:52;;;;;;;11.80;4.70;;;;;;;31.26;84.08;100135.75;4459875;32;20100;-67
2022/06/10 11:39:31;;;;;;;4.45;4.00;;;;;;;30.92;76.77;100146.50;4460347;32;20102;-67
2022/06/10 11:42:08;;;;;;;10.43;4.10;;;;;;;31.29;72.66;100138.16;4459659;32;20108;-67
2022/06/10 11:44:44;;;;;;;3.78;3.53;;;;;;;32.47;70.71;100147.59;4464608;32;20093;-67
2022/06/10 11:47:42;;;;;;;3.95;3.65;;;;;;;33.77;68.58;100152.34;4468797;32;20093;-67
2022/06/10 11:50:16;;;;;;;7.65;3.80;;;;;;;34.42;60.46;100140.34;4449979;32;20164;-67
2022/06/10 11:53:14;;;;;;;6.25;3.55;;;;;;;34.54;54.90;100138.09;4453316;32;20360;-67
2022/06/10 11:55:44;;;;;;;3.72;3.42;;;;;;;35.10;52.43;100133.28;4451775;32;20085;-66
2022/06/10 12:01:19;;;;;;;5.12;3.30;;;;;;;36.82;48.29;100125.88;4468135;32;20475;-66
2022/06/10 12:03:59;;;;;;;6.78;3.53;;;;;;;37.25;45.50;100128.66;4466745;32;20538;-67
2022/06/10 12:06:41;;;;;;;4.45;3.67;;;;;;;36.82;47.32;100115.75;4458915;32;20136;-66
2022/06/10 12:09:27;;;;;;;7.78;4.00;;;;;;;37.64;43.36;100116.28;4457225;32;20134;-67
2022/06/10 12:11:54;;;;;;;;;;;;;;;35.74;48.40;100113.69;4459972;32;20524;-66
2022/06/10 12:14:42;;;;;;;4.70;3.87;;;;;;;37.02;45.32;100115.13;4453155;32;20041;-67
2022/06/10 12:17:14;;;;;;;7.60;3.50;;;;;;;35.78;45.98;100109.53;4457354;31;20092;-67
2022/06/10 12:20:33;;;;;;;3.97;3.62;;;;;;;35.55;46.69;100098.66;4462287;32;20461;-66
2022/06/10 12:23:14;;;;;;;3.87;3.50;;;;;;;36.18;46.73;100088.16;4435693;32;20085;-67
2022/06/10 12:26:06;;;;;;;5.15;3.33;;;;;;;36.37;46.26;100086.72;4461807;32;20111;-67
2022/06/10 12:28:45;;;;;;;5.80;3.37;;;;;;;37.27;43.93;100085.31;4463355;32;20490;-67
2022/06/10 12:31:34;;;;;;;3.72;3.42;;;;;;;36.68;45.13;100080.97;4463845;32;20221;-67
2022/06/10 12:34:19;;;;;;;3.53;3.30;;;;;;;37.48;43.06;100078.97;4457823;32;20403;-67
2022/06/10 12:37:03;;;;;;;11.52;4.00;;;;;;;39.16;39.27;100078.34;4466045;32;20108;-67
2022/06/10 12:39:42;;;;;;;6.40;3.58;;;;;;;38.93;39.86;100078.75;4462156;32;20097;-67
2022/06/10 12:42:18;;;;;;;3.87;3.22;;;;;;;37.49;41.62;100078.78;4444760;32;20109;-67
2022/06/10 12:44:50;;;;;;;;;;;;;;;37.86;40.83;100067.56;4464222;32;20110;-67
2022/06/10 12:47:34;;;;;;;3.87;2.80;;;;;;;36.94;41.68;100071.28;4467622;32;19987;-67
2022/06/10 12:50:16;;;;;;;6.80;3.17;;;;;;;38.64;38.78;100060.69;4470378;32;20191;-67
2022/06/10 12:53:02;;;;;;;6.43;3.20;;;;;;;39.41;37.64;100070.31;4470330;32;20084;-67
2022/06/10 12:55:35;;;;;;;;;;;;;;;39.56;38.11;100080.25;4470577;32;20148;-67
2022/06/10 12:58:03;;;;;;;4.47;2.80;;;;;;;38.68;37.57;100080.38;4469595;32;20037;-67
2022/06/10 13:00:38;;;;;;;3.87;3.25;;;;;;;36.35;41.29;100077.81;4454852;32;20096;-67
2022/06/10 13:03:11;;;;;;;5.50;3.15;;;;;;;35.45;44.38;100081.63;4454575;32;20096;-67
2022/06/10 13:05:39;;;;;;;13.77;3.65;;;;;;;34.43;47.89;100073.66;4454908;32;20102;-67
2022/06/10 13:08:47;;;;;;;10.77;3.50;;;;;;;33.75;49.02;100085.25;4454661;32;20216;-67
2022/06/10 13:11:33;;;;;;;8.98;3.45;;;;;;;33.27;50.57;100084.28;4454795;32;20154;-67
2022/06/10 13:14:28;;;;;;;3.85;3.55;;;;;;;33.74;50.42;100091.72;4454791;32;20127;-66
2022/06/10 13:16:58;;;;;;;4.62;3.75;;;;;;;33.20;50.93;100094.19;4454581;32;20146;-66
2022/06/10 13:19:38;;;;;;;5.68;3.83;;;;;;;32.98;50.79;100093.84;4455476;32;20089;-66
2022/06/10 13:22:17;;;;;;;12.88;3.40;;;;;;;34.14;48.89;100085.28;4455441;32;20092;-67
2022/06/10 13:24:53;;;;;;;7.00;3.50;;;;;;;36.49;42.95;100078.84;4454406;32;20104;-67
2022/06/10 13:27:29;;;;;;;8.65;3.75;;;;;;;36.22;43.23;100089.50;4454067;32;20403;-67
2022/06/10 13:30:00;;;;;;;4.60;3.20;;;;;;;36.35;43.43;100077.81;4454424;32;20080;-67
2022/06/10 13:32:28;;;;;;;6.78;3.33;;;;;;;37.53;41.00;100077.31;4454095;32;20451;-67
2022/06/10 13:34:59;;;;;;;6.25;3.30;;;;;;;35.94;42.10;100075.59;4457848;32;20168;-67
2022/06/10 13:37:32;;;;;;;6.85;3.70;;;;;;;35.02;44.60;100081.34;4460972;32;20096;-67
2022/06/10 13:40:01;;;;;;;8.32;3.85;;;;;;;34.35;45.89;100090.12;4459553;32;20102;-67
2022/06/10 13:42:35;;;;;;;3.75;3.42;;;;;;;34.29;47.11;100073.59;4455196;32;20154;-67
2022/06/10 13:45:22;;;;;;;5.55;3.70;;;;;;;35.68;45.27;100070.59;4454852;32;20582;-67
2022/06/10 13:48:07;;;;;;;6.50;3.03;;;;;;;37.05;41.84;100068.88;4454518;32;20164;-67
2022/06/10 13:53:47;;;;;;;3.90;2.97;;;;;;;38.03;37.89;100064.28;4454140;32;20088;-67
2022/06/10 13:56:23;;;;;;;9.80;3.22;;;;;;;38.40;38.17;100073.12;4442251;32;20733;-67
2022/06/10 13:58:54;;;;;;;;;;;;;;;39.39;36.11;100064.13;4461648;32;20145;-67
2022/06/10 14:01:26;;;;;;;5.10;3.20;;;;;;;39.49;35.28;100079.41;4459355;32;19980;-67
2022/06/10 14:04:15;;;;;;;4.62;3.08;;;;;;;40.09;34.84;100072.69;4461572;32;20100;-67
2022/06/10 14:07:02;;;;;;;7.72;3.20;;;;;;;39.02;35.74;100068.38;4468561;32;20442;-67
2022/06/10 14:09:33;;;;;;;3.10;2.70;;;;;;;40.24;35.44;100064.13;4467941;32;20076;-67
2022/06/10 14:12:24;;;;;;;6.70;3.28;;;;;;;39.84;34.79;100069.81;4468566;32;20168;-67
2022/06/10 14:15:16;;;;;;;3.40;3.10;;;;;;;38.65;36.36;100069.78;4459100;32;20081;-67
2022/06/10 14:17:51;;;;;;;5.90;2.62;;;;;;;38.65;35.12;100067.87;4458526;32;20084;-67
2022/06/10 14:20:24;;;;;;;3.92;2.70;;;;;;;38.72;34.86;100074.25;4438483;32;20420;-67
2022/06/10 14:23:00;;;;;;;3.33;3.03;;;;;;;38.95;34.87;100075.81;4454465;32;20084;-67
2022/06/10 14:25:28;;;;;;;3.65;3.35;;;;;;;39.20;35.61;100062.22;4454122;32;20088;-67
2022/06/10 14:28:06;;;;;;;2.70;2.47;;;;;;;38.34;35.65;100042.78;4453914;32;20135;-67
2022/06/10 14:30:34;;;;;;;7.37;2.95;;;;;;;36.15;39.12;100061.09;4457966;32;20112;-67
2022/06/10 14:33:13;;;;;;;9.07;2.70;;;;;;;35.85;39.60;100044.69;4454211;32;20081;-67
2022/06/10 14:35:44;;;;;;;4.20;2.75;;;;;;;36.52;37.70;100040.87;4462186;32;20699;-67
2022/06/10 14:38:14;;;;;;;4.28;2.70;;;;;;;36.36;36.55;100038.34;4469868;32;20138;-67
2022/06/10 14:40:57;;;;;;;4.00;2.97;;;;;;;36.99;36.94;100031.22;4467139;32;20084;-67
2022/06/10 14:43:27;;;;;;;9.73;3.00;;;;;;;38.15;34.42;100039.78;4460876;32;20093;-67
2022/06/10 14:46:18;;;;;;;3.65;2.50;;;;;;;38.00;34.54;100034.44;4461826;32;20103;-67
2022/06/10 14:48:47;;;;;;;2.60;2.40;;;;;;;37.62;34.69;100057.91;4462451;32;20160;-67
2022/06/10 14:51:22;;;;;;;3.50;2.67;;;;;;;37.80;33.71;100055.47;4461963;32;20092;-67
2022/06/10 14:53:56;;;;;;;4.68;2.47;;;;;;;39.04;33.31;100073.69;4461192;32;20126;-67
2022/06/10 14:56:42;;;;;;;6.00;2.60;;;;;;;39.00;33.85;100077.91;4467011;32;20085;-67
2022/06/10 14:59:20;;;;;;;5.45;2.62;;;;;;;39.31;32.14;100083.66;4469534;32;20428;-67
2022/06/10 15:01:50;;;;;;;4.60;2.50;;;;;;;39.39;33.36;100077.09;4469204;32;20834;-67
2022/06/10 15:04:17;;;;;;;5.28;2.55;;;;;;;39.43;33.70;100083.84;4468159;32;20167;-67
2022/06/10 15:06:59;;;;;;;10.43;3.35;;;;;;;38.32;34.66;100083.44;4468599;32;20127;-67
2022/06/10 15:09:31;;;;;;;4.00;2.50;;;;;;;37.01;35.93;100072.22;4469090;32;20099;-67
2022/06/10 15:12:27;;;;;;;9.43;2.80;;;;;;;36.12;36.29;100087.06;4469137;32;20145;-67
2022/06/10 15:14:56;;;;;;;7.28;2.83;;;;;;;35.60;37.09;100090.72;4468679;32;20144;-67
2022/06/10 15:17:26;;;;;;;2.83;2.45;;;;;;;35.40;37.41;100097.75;4467779;32;20143;-67
2022/06/10 15:19:55;;;;;;;7.28;2.85;;;;;;;36.65;35.90;100102.47;4467559;32;20502;-67
2022/06/10 15:22:23;;;;;;;2.45;2.22;;;;;;;37.07;34.13;100113.50;4467460;32;20419;-67
2022/06/10 15:24:51;;;;;;;5.12;2.67;;;;;;;37.51;34.05;100128.87;4467791;32;20100;-67
2022/06/10 15:27:18;;;;;;;4.47;2.80;;;;;;;38.10;33.90;100135.84;4467786;32;20157;-67
2022/06/10 15:29:46;;;;;;;7.15;2.92;;;;;;;39.40;32.98;100136.66;4467525;32;20184;-67
2022/06/10 15:32:17;;;;;;;2.83;2.62;;;;;;;38.26;33.84;100153.91;4469184;32;20092;-67
2022/06/10 15:40:43;;;;;;;2.58;2.35;;;;;;;37.88;33.63;100153.44;4468782;32;20259;-67
2022/06/10 15:43:15;;;;;;;7.32;2.67;;;;;;;37.99;33.40;100153.78;4468889;32;20076;-67
2022/06/10 15:45:43;;;;;;;3.70;2.28;;;;;;;37.72;33.78;100162.87;4468985;32;20133;-67
2022/06/10 15:48:10;;;;;;;3.42;2.42;;;;;;;38.35;33.41;100169.25;4468839;32;20180;-67
2022/06/10 15:50:47;;;;;;;4.05;3.17;;;;;;;38.48;32.73;100144.53;4470528;32;20100;-67
2022/06/10 15:53:17;;;;;;;5.97;2.47;;;;;;;38.95;32.37;100137.25;4468999;32;20076;-67
2022/06/10 15:58:37;;;;;;;2.90;2.70;;;;;;;37.96;33.96;100115.69;4470931;32;20089;-67
2022/06/10 16:01:04;;;;;;;4.40;2.40;;;;;;;37.88;34.20;100101.19;4471048;32;20101;-67
2022/06/10 16:03:33;;;;;;;2.60;2.50;;;;;;;37.58;34.39;100108.84;4470861;32;20499;-67
2022/06/10 16:06:00;;;;;;;5.97;2.55;;;;;;;38.19;33.51;100092.50;4470977;32;20088;-67
2022/06/10 16:08:27;;;;;;;5.28;2.60;;;;;;;37.07;34.94;100107.16;4470810;32;20123;-67
2022/06/10 16:10:56;;;;;;;2.67;2.53;;;;;;;36.31;36.20;100126.75;4470974;32;20617;-67
2022/06/10 16:13:38;;;;;;;3.15;2.60;;;;;;;37.24;35.34;100138.75;4470926;32;20466;-67
2022/06/10 16:16:18;;;;;;;2.85;2.65;;;;;;;38.09;34.60;100138.78;4470936;32;20084;-67
2022/06/10 16:18:46;;;;;;;5.12;2.95;;;;;;;37.69;34.75;100141.28;4470801;32;20113;-67
2022/06/10 16:21:17;;;;;;;2.97;2.58;;;;;;;37.70;34.84;100145.72;4470954;32;20131;-67
2022/06/10 16:23:44;;;;;;;3.17;2.95;;;;;;;37.99;34.66;100153.78;4471085;32;20102;-67
2022/06/10 16:26:30;;;;;;;6.72;3.05;;;;;;;38.41;34.25;100153.78;4470604;32;20092;-67
2022/06/10 16:29:07;;;;;;;4.90;3.62;;;;;;;37.78;36.02;100149.19;4470860;32;20120;-67